createdAt,value
2023-02-11T00:03:42.337Z,101932.78
2023-02-11T00:08:44.168Z,101925.09
2023-02-11T00:13:46.289Z,101903.41
2023-02-11T00:18:48.771Z,101910.22
2023-02-11T00:23:50.452Z,101902.66
2023-02-11T00:28:52.723Z,101887.59
2023-02-11T00:33:54.541Z,101879.22
2023-02-11T00:38:57.299Z,101877.31
2023-02-11T00:43:59.714Z,101881.03
2023-02-11T00:49:04.153Z,101851.78
2023-02-11T00:54:06.085Z,101854.78
2023-02-11T00:59:07.713Z,101833.72
2023-02-11T01:04:09.356Z,101820.66
2023-02-11T01:09:10.936Z,101812.72
2023-02-11T01:14:12.546Z,101816.66
2023-02-11T01:19:14.247Z,101840.66
2023-02-11T01:24:15.860Z,101832.72
2023-02-11T01:29:19.371Z,101845.19
2023-02-11T01:34:21.008Z,101843.19
2023-02-11T01:39:22.617Z,101834.50
2023-02-11T01:44:25.848Z,101831.56
2023-02-11T01:49:30.935Z,101818.19
2023-02-11T01:54:58.234Z,101811.84
2023-02-11T02:00:18.039Z,101793.97
2023-02-11T02:05:36.983Z,101780.03
2023-02-11T02:10:41.470Z,101777.41
2023-02-11T02:16:09.243Z,101781.16
2023-02-11T02:21:36.522Z,101773.75
2023-02-11T02:26:52.078Z,101785.78
2023-02-11T02:32:12.458Z,101789.81
2023-02-11T02:37:55.147Z,101760.38
2023-02-11T02:42:57.897Z,101753.88
2023-02-11T02:47:59.546Z,101744.50
2023-02-11T02:53:26.787Z,101738.72
2023-02-11T02:59:04.312Z,101741.25
2023-02-11T03:04:22.997Z,101735.38
2023-02-11T03:09:46.174Z,101753.59
2023-02-11T03:14:50.199Z,101761.78
2023-02-11T03:19:51.864Z,101750.47
2023-02-11T03:24:54.050Z,101762.88
2023-02-11T03:30:06.680Z,101735.06
2023-02-11T03:35:15.746Z,101714.53
2023-02-11T03:40:21.852Z,101704.88
2023-02-11T03:45:24.626Z,101719.25
2023-02-11T03:50:27.265Z,101695.44
2023-02-11T03:55:29.874Z,101697.34
2023-02-11T04:00:33.507Z,101695.59
2023-02-11T04:05:35.143Z,101688.00
2023-02-11T04:10:36.820Z,101678.78
2023-02-11T04:15:38.545Z,101684.75
2023-02-11T04:20:40.136Z,101693.56
2023-02-11T04:25:42.605Z,101693.50
2023-02-11T04:30:44.411Z,101691.84
2023-02-11T04:35:46.096Z,101689.88
2023-02-11T04:40:47.690Z,101712.34
2023-02-11T04:45:49.655Z,101713.69
2023-02-11T04:50:53.050Z,101720.28
2023-02-11T04:55:54.658Z,101716.97
2023-02-11T05:00:56.355Z,101714.38
2023-02-11T05:05:58.034Z,101717.81
2023-02-11T05:10:59.754Z,101723.72
2023-02-11T05:16:01.417Z,101720.41
2023-02-11T05:21:09.694Z,101712.31
2023-02-11T05:26:11.980Z,101716.81
2023-02-11T05:31:14.860Z,101701.66
2023-02-11T05:36:16.947Z,101706.19
2023-02-11T05:41:19.244Z,101701.88
2023-02-11T05:46:20.926Z,101700.28
2023-02-11T05:51:22.921Z,101688.97
2023-02-11T05:56:24.512Z,101696.84
2023-02-11T06:01:26.520Z,101691.66
2023-02-11T06:06:28.218Z,101687.25
2023-02-11T06:11:29.895Z,101675.69
2023-02-11T06:16:31.540Z,101676.50
2023-02-11T06:21:43.224Z,101683.34
2023-02-11T06:26:45.947Z,101678.16
2023-02-11T06:31:47.801Z,101669.13
2023-02-11T06:36:49.456Z,101667.94
2023-02-11T06:41:51.104Z,101658.84
2023-02-11T06:46:52.845Z,101669.03
2023-02-11T06:51:54.517Z,101656.31
2023-02-11T06:56:56.092Z,101663.38
2023-02-11T07:01:57.840Z,101660.63
2023-02-11T07:06:59.530Z,101649.25
2023-02-11T07:12:01.158Z,101653.09
2023-02-11T07:17:04.857Z,101649.66
2023-02-11T07:22:06.552Z,101645.66
2023-02-11T07:27:08.186Z,101645.81
2023-02-11T07:32:10.221Z,101655.63
2023-02-11T07:37:11.887Z,101666.22
2023-02-11T07:42:13.629Z,101665.38
2023-02-11T07:47:15.720Z,101677.84
2023-02-11T07:52:17.722Z,101668.81
2023-02-11T07:57:19.441Z,101668.50
2023-02-11T08:02:21.103Z,101662.09
2023-02-11T08:07:22.813Z,101661.66
2023-02-11T08:12:24.426Z,101673.53
2023-02-11T08:17:26.090Z,101677.53
2023-02-11T08:22:27.743Z,101667.16
2023-02-11T08:27:29.442Z,101670.38
2023-02-11T08:32:31.128Z,101665.63
2023-02-11T08:37:33.191Z,101667.41
2023-02-11T08:42:34.872Z,101665.81
2023-02-11T08:47:37.101Z,101658.50
2023-02-11T08:52:38.757Z,101653.81
2023-02-11T08:57:40.359Z,101665.38
2023-02-11T09:02:42.057Z,101662.47
2023-02-11T09:07:43.816Z,101677.00
2023-02-11T09:12:45.455Z,101687.28
2023-02-11T09:17:47.058Z,101679.97
2023-02-11T09:22:48.718Z,101680.25
2023-02-11T09:27:51.392Z,101683.63
2023-02-11T09:32:52.993Z,101692.59
2023-02-11T09:37:54.727Z,101705.19
2023-02-11T09:43:14.697Z,101712.66
2023-02-11T09:48:19.274Z,101695.50
2023-02-11T09:53:26.210Z,101683.94
2023-02-11T09:58:36.107Z,101686.00
2023-02-11T10:03:49.809Z,101677.91
2023-02-11T10:09:09.580Z,101681.34
2023-02-11T10:14:38.091Z,101668.28
2023-02-11T10:20:03.424Z,101673.25
2023-02-11T10:25:28.157Z,101673.06
2023-02-11T10:30:37.390Z,101668.50
2023-02-11T10:35:39.116Z,101656.44
2023-02-11T10:40:40.938Z,101688.91
2023-02-11T10:45:45.424Z,101686.41
2023-02-11T10:50:47.054Z,101661.38
2023-02-11T10:55:54.407Z,101657.34
2023-02-11T11:00:57.336Z,101640.06
2023-02-11T11:06:01.260Z,101654.81
2023-02-11T11:11:09.015Z,101645.56
2023-02-11T11:16:13.774Z,101634.50
2023-02-11T11:21:21.763Z,101662.84
2023-02-11T11:26:25.995Z,101647.56
2023-02-11T11:31:37.902Z,101640.19
2023-02-11T11:36:40.295Z,101645.81
2023-02-11T11:41:51.374Z,101632.59
2023-02-11T11:47:41.390Z,101634.16
2023-02-11T11:52:51.025Z,101655.59
2023-02-11T11:57:52.869Z,101654.38
2023-02-11T12:03:23.945Z,101665.75
2023-02-11T12:08:44.047Z,101667.66
2023-02-11T12:14:07.361Z,101663.09
2023-02-11T12:19:43.177Z,101645.47
2023-02-11T12:25:00.173Z,101644.69
2023-02-11T12:30:10.778Z,101655.59
2023-02-11T12:35:32.779Z,101662.75
2023-02-11T12:40:46.569Z,101672.88
2023-02-11T12:46:10.120Z,101671.50
2023-02-11T12:51:20.943Z,101665.44
2023-02-11T12:56:32.212Z,101657.50
2023-02-11T13:01:39.989Z,101656.56
2023-02-11T13:07:02.300Z,101655.53
2023-02-11T13:12:24.692Z,101636.69
2023-02-11T13:17:32.399Z,101626.75
2023-02-11T13:22:44.694Z,101619.31
2023-02-11T13:28:08.106Z,101605.91
2023-02-11T13:33:15.610Z,101611.09
2023-02-11T13:38:18.124Z,101615.31
2023-02-11T13:43:24.924Z,101618.41
2023-02-11T13:48:27.821Z,101610.97
2023-02-11T13:53:29.567Z,101611.75
2023-02-11T13:58:31.131Z,101606.38
2023-02-11T14:03:56.578Z,101612.88
2023-02-11T14:09:18.435Z,101618.22
2023-02-11T14:14:33.912Z,101628.34
2023-02-11T14:19:38.011Z,101633.13
2023-02-11T14:24:51.135Z,101630.34
2023-02-11T14:30:15.053Z,101637.59
2023-02-11T14:35:37.886Z,101634.75
2023-02-11T14:41:22.867Z,101637.34
2023-02-11T14:46:25.354Z,101636.47
2023-02-11T14:51:38.895Z,101631.22
2023-02-11T14:56:42.282Z,101627.31
2023-02-11T15:01:47.196Z,101632.75
2023-02-11T15:06:51.641Z,101635.34
2023-02-11T15:11:54.473Z,101639.94
2023-02-11T15:16:58.988Z,101641.75
2023-02-11T15:22:00.637Z,101638.97
2023-02-11T15:27:04.526Z,101634.22
2023-02-11T15:32:21.685Z,101661.50
2023-02-11T15:37:26.479Z,101649.25
2023-02-11T15:42:40.786Z,101652.78
2023-02-11T15:47:51.542Z,101649.44
2023-02-11T15:52:53.783Z,101642.94
2023-02-11T15:58:00.983Z,101640.72
2023-02-11T16:03:03.219Z,101665.16
2023-02-11T16:08:21.793Z,101665.53
2023-02-11T16:13:23.911Z,101666.75
2023-02-11T16:18:39.273Z,101669.69
2023-02-11T16:23:42.420Z,101674.59
2023-02-11T16:28:44.077Z,101683.06
2023-02-11T16:33:45.691Z,101699.31
2023-02-11T16:38:47.322Z,101688.91
2023-02-11T16:43:48.937Z,101701.16
2023-02-11T16:48:50.942Z,101688.28
2023-02-11T16:53:52.615Z,101693.19
2023-02-11T16:58:54.228Z,101692.81
2023-02-11T17:03:55.906Z,101707.53
2023-02-11T17:08:57.735Z,101714.00
2023-02-11T17:13:59.337Z,101723.13
2023-02-11T17:19:01.024Z,101717.78
2023-02-11T17:24:02.691Z,101713.03
2023-02-11T17:29:08.958Z,101721.63
2023-02-11T17:34:10.884Z,101730.28
2023-02-11T17:39:12.966Z,101747.72
2023-02-11T17:44:16.307Z,101742.06
2023-02-11T17:49:18.043Z,101730.16
2023-02-11T17:54:20.202Z,101744.41
2023-02-11T17:59:21.886Z,101762.97
2023-02-11T18:04:23.549Z,101772.47
2023-02-11T18:09:26.110Z,101765.22
2023-02-11T18:14:27.724Z,101773.34
2023-02-11T18:19:32.023Z,101785.06
2023-02-11T18:24:33.729Z,101802.00
2023-02-11T18:29:35.662Z,101802.00
2023-02-11T18:34:37.351Z,101801.22
2023-02-11T18:39:39.280Z,101804.06
2023-02-11T18:44:40.910Z,101819.56
2023-02-11T18:49:42.535Z,101828.69
2023-02-11T18:54:44.175Z,101825.31
2023-02-11T18:59:45.800Z,101844.13
2023-02-11T19:04:47.566Z,101842.56
2023-02-11T19:09:49.465Z,101860.25
2023-02-11T19:14:51.185Z,101844.91
2023-02-11T19:19:53.135Z,101855.63
2023-02-11T19:24:54.807Z,101884.19
2023-02-11T19:29:56.588Z,101869.84
2023-02-11T19:34:58.211Z,101891.09
2023-02-11T19:39:59.833Z,101894.72
2023-02-11T19:45:01.458Z,101893.00
2023-02-11T19:50:04.813Z,101887.56
2023-02-11T19:55:07.455Z,101894.81
2023-02-11T20:00:11.121Z,101908.03
2023-02-11T20:05:15.894Z,101915.97
2023-02-11T20:10:18.116Z,101923.06
2023-02-11T20:15:19.792Z,101933.69
2023-02-11T20:20:21.422Z,101954.31
2023-02-11T20:25:23.098Z,101952.56
2023-02-11T20:30:24.731Z,101950.84
2023-02-11T20:35:26.368Z,101949.81
2023-02-11T20:40:28.015Z,101937.53
2023-02-11T20:45:29.642Z,101926.91
2023-02-11T20:50:31.291Z,101917.16
2023-02-11T20:55:37.126Z,101915.34
2023-02-11T21:00:38.746Z,101914.31
2023-02-11T21:05:40.390Z,101914.41
2023-02-11T21:10:42.910Z,101917.78
2023-02-11T21:15:44.567Z,101928.97
2023-02-11T21:20:46.263Z,101938.50
2023-02-11T21:25:47.913Z,101935.72
2023-02-11T21:30:50.699Z,101942.97
2023-02-11T21:35:59.075Z,101945.66
2023-02-11T21:41:04.835Z,101965.19
2023-02-11T21:46:09.079Z,101960.59
2023-02-11T21:51:24.597Z,101980.22
2023-02-11T21:56:29.582Z,101981.88
2023-02-11T22:01:33.280Z,101979.91
2023-02-11T22:06:35.014Z,101984.38
2023-02-11T22:11:37.004Z,101993.13
2023-02-11T22:16:38.698Z,101997.53
2023-02-11T22:21:40.785Z,101988.78
2023-02-11T22:26:42.411Z,102004.94
2023-02-11T22:31:44.319Z,102014.47
2023-02-11T22:36:46.985Z,102018.69
2023-02-11T22:41:49.017Z,102017.81
2023-02-11T22:46:51.821Z,102013.53
2023-02-11T22:51:53.532Z,102032.34
2023-02-11T22:56:55.166Z,102038.41
2023-02-11T23:01:56.928Z,102032.00
2023-02-11T23:06:58.620Z,102051.59
2023-02-11T23:12:00.428Z,102052.38
2023-02-11T23:17:02.032Z,102058.59
2023-02-11T23:22:03.777Z,102060.50
2023-02-11T23:27:05.539Z,102053.25
2023-02-11T23:32:07.164Z,102072.16
2023-02-11T23:37:08.835Z,102076.56
2023-02-11T23:42:12.006Z,102069.47
2023-02-11T23:47:13.644Z,102072.94
2023-02-11T23:52:15.248Z,102070.19
2023-02-11T23:57:16.928Z,102068.28
